Time;durP1;ratioP1;P1;durP2;ratioP2;P2;SDS_P1;SDS_P2;PMS_P1;PMS_P2;Temp;Humidity;BMP_temperature;BMP_pressure;BME280_temperature;BME280_humidity;BME280_pressure;Samples;Min_cycle;Max_cycle;Signal;HPM_P1;HPM_P2
2023/03/02 00:01:33;;;;;;;5.20;4.60;;;;;;;19.84;43.13;97358.28;10292834;28;20472;-73
2023/03/02 00:06:55;;;;;;;4.90;4.30;;;;;;;19.84;43.12;97358.28;10279262;28;20400;-73
2023/03/02 00:12:15;;;;;;;4.90;4.30;;;;;;;19.82;43.15;97363.19;10292574;28;20055;-73
2023/03/02 00:17:36;;;;;;;5.97;4.60;;;;;;;19.81;43.03;97372.41;10307009;28;20050;-73
2023/03/02 00:22:56;;;;;;;4.80;4.30;;;;;;;19.80;42.99;97361.91;10306703;28;20046;-73
2023/03/02 00:28:16;;;;;;;4.63;4.00;;;;;;;19.77;42.96;97360.63;10292098;28;20559;-73
2023/03/02 00:33:35;;;;;;;6.18;4.30;;;;;;;19.76;43.00;97359.03;10278686;28;20069;-73
2023/03/02 00:38:56;;;;;;;4.88;4.07;;;;;;;19.73;42.84;97338.81;10291800;28;20050;-73
2023/03/02 00:44:18;;;;;;;4.22;3.72;;;;;;;19.72;42.85;97342.66;10306174;28;20487;-73
2023/03/02 00:49:38;;;;;;;5.22;4.40;;;;;;;19.71;42.87;97340.22;10291551;28;20061;-73
2023/03/02 00:54:57;;;;;;;4.53;3.90;;;;;;;19.69;42.86;97334.31;10291430;28;20058;-73
2023/03/02 01:00:17;;;;;;;4.32;3.92;;;;;;;19.68;42.81;97330.00;10291399;28;20066;-73
2023/03/02 01:05:39;;;;;;;4.15;3.75;;;;;;;19.67;42.71;97323.03;10304916;28;20050;-73
2023/03/02 01:11:00;;;;;;;3.95;3.63;;;;;;;19.65;42.86;97322.53;10291280;28;20054;-73
2023/03/02 01:16:20;;;;;;;4.80;4.20;;;;;;;19.62;42.64;97305.06;10305721;28;20046;-73
2023/03/02 01:21:40;;;;;;;4.10;3.70;;;;;;;19.61;42.76;97308.06;10291016;28;20439;-73
2023/03/02 01:27:00;;;;;;;4.25;3.85;;;;;;;19.61;42.77;97299.97;10290966;28;20039;-73
2023/03/02 01:32:20;;;;;;;5.00;3.88;;;;;;;19.60;42.57;97292.94;10295647;28;20062;-73
2023/03/02 01:37:40;;;;;;;5.28;4.15;;;;;;;19.55;42.70;97294.69;10290788;28;20047;-73
2023/03/02 01:43:01;;;;;;;5.35;3.80;;;;;;;19.55;42.65;97283.09;10290568;28;20052;-73
2023/03/02 01:48:27;;;;;;;6.15;4.10;;;;;;;19.53;42.67;97275.28;10276992;28;20053;-73
2023/03/02 01:53:50;;;;;;;4.45;3.95;;;;;;;19.52;42.60;97264.78;10290482;28;20051;-73
2023/03/02 01:59:12;;;;;;;4.50;3.92;;;;;;;19.50;42.49;97264.28;10297428;28;20054;-73
2023/03/02 02:04:34;;;;;;;3.90;3.50;;;;;;;19.49;42.57;97260.81;10297647;28;20519;-77
2023/03/02 02:09:55;;;;;;;5.20;4.15;;;;;;;19.48;42.40;97256.53;10311578;28;20050;-77
2023/03/02 02:15:15;;;;;;;4.10;3.70;;;;;;;19.45;42.52;97251.72;10296891;28;20047;-77
2023/03/02 02:20:44;;;;;;;3.85;3.45;;;;;;;19.43;42.50;97245.84;10311202;28;20054;-77
2023/03/02 02:26:17;;;;;;;4.63;3.75;;;;;;;19.42;42.33;97248.84;10296688;28;20407;-77
2023/03/02 02:31:44;;;;;;;5.20;4.00;;;;;;;19.41;42.39;97229.16;10286246;28;20062;-77
2023/03/02 02:37:18;;;;;;;4.03;3.63;;;;;;;19.38;42.45;97240.56;10310699;28;20042;-77
2023/03/02 02:42:42;;;;;;;4.57;3.70;;;;;;;19.38;42.40;97234.38;10296060;28;20073;-77
2023/03/02 02:48:02;;;;;;;4.40;3.85;;;;;;;19.35;42.40;97230.41;10295718;28;20046;-77
2023/03/02 02:53:27;;;;;;;4.20;3.80;;;;;;;19.33;42.37;97221.81;10295386;28;20105;-77
2023/03/02 02:58:52;;;;;;;4.43;3.65;;;;;;;19.32;42.49;97215.59;10296754;28;20408;-77
2023/03/02 03:04:13;;;;;;;4.78;3.85;;;;;;;19.32;42.28;97214.81;10295040;28;20101;-77
2023/03/02 03:09:33;;;;;;;4.05;3.60;;;;;;;19.29;42.42;97208.13;10293909;28;20057;-77
2023/03/02 03:14:54;;;;;;;3.80;3.22;;;;;;;19.28;42.38;97208.44;10309317;28;20109;-77
2023/03/02 03:20:15;;;;;;;4.53;3.58;;;;;;;19.26;42.46;97205.25;10294353;28;20043;-77
2023/03/02 03:25:36;;;;;;;3.95;3.55;;;;;;;19.24;42.22;97208.25;10294329;28;20046;-77
2023/03/02 03:30:56;;;;;;;3.78;3.38;;;;;;;19.23;42.42;97211.25;10288539;28;20062;-77
2023/03/02 03:36:16;;;;;;;4.72;3.70;;;;;;;19.21;42.43;97217.00;10308393;28;20050;-77
2023/03/02 03:41:37;;;;;;;3.90;3.38;;;;;;;19.19;42.30;97210.28;10293451;28;20098;-77
2023/03/02 03:46:57;;;;;;;3.95;3.55;;;;;;;19.18;42.22;97220.31;10308048;28;20434;-77
2023/03/02 03:52:17;;;;;;;4.68;3.45;;;;;;;19.16;42.32;97223.31;10307992;28;20069;-77
2023/03/02 03:57:37;;;;;;;4.35;3.53;;;;;;;19.14;42.26;97228.22;10293103;28;20053;-77
2023/03/02 04:02:57;;;;;;;3.80;3.50;;;;;;;19.12;42.25;97218.84;10292821;28;20055;-77
2023/03/02 04:08:18;;;;;;;3.80;3.33;;;;;;;19.11;42.28;97209.16;10292786;28;20054;-77
2023/03/02 04:13:38;;;;;;;3.88;3.47;;;;;;;19.10;42.09;97207.56;10292472;28;20051;-77
2023/03/02 04:18:58;;;;;;;3.90;3.38;;;;;;;19.07;42.13;97206.31;10306553;28;20046;-77
2023/03/02 04:24:19;;;;;;;3.60;3.30;;;;;;;19.07;42.27;97210.88;10278641;28;20043;-77
2023/03/02 04:29:40;;;;;;;3.97;3.58;;;;;;;19.05;42.13;97210.41;10289903;28;20062;-77
2023/03/02 04:35:01;;;;;;;4.32;3.92;;;;;;;19.04;42.23;97206.13;10292474;28;20042;-77
2023/03/02 04:40:21;;;;;;;4.20;3.50;;;;;;;19.02;42.09;97211.03;10291570;28;20057;-77
2023/03/02 04:45:41;;;;;;;3.90;3.45;;;;;;;19.00;42.15;97219.44;10306293;28;20062;-77
2023/03/02 04:51:00;;;;;;;4.20;3.40;;;;;;;18.98;42.05;97218.94;10306209;28;20113;-77
2023/03/02 04:56:21;;;;;;;4.10;3.42;;;;;;;18.98;42.07;97218.16;10291604;28;20038;-77
2023/03/02 05:01:40;;;;;;;3.95;3.45;;;;;;;18.94;42.10;97221.47;10306001;28;20039;-77
2023/03/02 05:07:00;;;;;;;4.65;3.60;;;;;;;18.93;42.11;97209.09;10291281;28;20043;-77
2023/03/02 05:12:20;;;;;;;3.72;3.33;;;;;;;18.93;42.18;97219.06;10291845;28;20053;-77
2023/03/02 05:17:40;;;;;;;4.00;3.60;;;;;;;18.90;42.01;97215.09;10305706;28;20047;-77
2023/03/02 05:23:03;;;;;;;4.25;3.50;;;;;;;18.89;42.01;97218.88;10305513;28;20047;-77
2023/03/02 05:28:25;;;;;;;4.28;3.83;;;;;;;18.89;42.07;97215.41;10290918;28;20475;-77
2023/03/02 05:33:45;;;;;;;4.82;3.65;;;;;;;18.89;41.95;97213.50;10271626;28;20415;-77
2023/03/02 05:39:06;;;;;;;4.32;3.85;;;;;;;18.90;42.05;97222.41;10298151;28;20050;-77
2023/03/02 05:44:25;;;;;;;4.55;3.60;;;;;;;18.91;42.05;97221.28;10298034;28;20043;-77
2023/03/02 05:49:44;;;;;;;3.78;3.47;;;;;;;18.91;42.14;97226.69;10311378;28;20102;-77
2023/03/02 05:55:04;;;;;;;3.67;3.38;;;;;;;18.94;42.35;97223.38;10297516;28;20043;-77
2023/03/02 06:00:24;;;;;;;5.60;3.45;;;;;;;18.97;42.22;97225.44;10311128;28;20047;-78
2023/03/02 06:05:43;;;;;;;4.43;3.50;;;;;;;19.00;42.58;97229.44;10312002;28;20039;-77
2023/03/02 06:11:03;;;;;;;4.32;3.60;;;;;;;19.02;42.64;97230.72;10297143;28;20047;-77
2023/03/02 06:16:22;;;;;;;3.85;3.42;;;;;;;19.05;42.72;97232.00;10296024;28;20042;-77
2023/03/02 06:21:42;;;;;;;3.78;3.17;;;;;;;19.08;42.70;97231.38;10311005;28;20047;-76
2023/03/02 06:27:01;;;;;;;4.60;3.53;;;;;;;19.09;42.83;97239.19;10303118;28;20058;-77
2023/03/02 06:32:21;;;;;;;4.00;3.60;;;;;;;19.12;42.72;97238.56;10301523;28;20055;-77
2023/03/02 06:37:40;;;;;;;5.25;3.83;;;;;;;19.16;42.69;97244.91;10295807;28;20043;-77
2023/03/02 06:43:00;;;;;;;4.05;3.63;;;;;;;19.19;42.89;97248.09;10295380;28;20039;-77
2023/03/02 06:48:19;;;;;;;3.80;3.38;;;;;;;19.21;42.55;97241.31;10294213;28;20043;-76
2023/03/02 06:53:39;;;;;;;3.85;3.42;;;;;;;19.24;42.65;97240.66;10309157;28;20046;-78
2023/03/02 06:58:58;;;;;;;4.10;3.55;;;;;;;19.29;42.51;97242.47;10294994;28;20438;-77
2023/03/02 07:04:17;;;;;;;4.03;3.42;;;;;;;19.30;42.53;97235.94;10293719;28;20061;-78
2023/03/02 07:09:37;;;;;;;4.35;3.50;;;;;;;19.35;42.56;97238.50;10308553;28;20047;-77
2023/03/02 07:14:57;;;;;;;3.40;3.10;;;;;;;19.36;42.36;97226.56;10294765;28;20541;-77
2023/03/02 07:20:17;;;;;;;4.07;3.45;;;;;;;19.41;42.30;97231.84;10294378;28;20042;-77
2023/03/02 07:25:36;;;;;;;4.75;3.65;;;;;;;19.44;42.49;97233.13;10307877;28;20038;-78
2023/03/02 07:30:56;;;;;;;4.40;3.35;;;;;;;19.49;42.37;97231.06;10288675;28;20427;-77
2023/03/02 07:36:15;;;;;;;4.40;3.63;;;;;;;19.51;42.20;97223.44;10293872;28;20046;-78
2023/03/02 07:41:34;;;;;;;5.15;3.97;;;;;;;19.55;42.12;97223.63;10293649;28;20043;-77
2023/03/02 07:46:54;;;;;;;3.97;3.58;;;;;;;19.60;42.41;97222.69;10293482;28;20042;-77
2023/03/02 07:52:14;;;;;;;4.20;3.60;;;;;;;19.63;42.39;97219.34;10292645;28;20053;-77
2023/03/02 07:57:33;;;;;;;4.38;3.83;;;;;;;19.67;42.19;97229.22;10293098;28;20121;-76
2023/03/02 08:02:53;;;;;;;3.72;3.42;;;;;;;19.71;42.11;97226.69;10292860;28;20038;-74
2023/03/02 08:08:12;;;;;;;3.75;3.08;;;;;;;19.75;42.20;97222.28;10292839;28;20514;-74
2023/03/02 08:13:32;;;;;;;4.22;3.42;;;;;;;19.78;42.36;97227.06;10307341;28;20102;-74
2023/03/02 08:18:51;;;;;;;5.03;3.55;;;;;;;19.82;42.91;97219.91;10292499;28;20039;-75
2023/03/02 08:24:11;;;;;;;3.78;3.47;;;;;;;19.88;42.69;97231.38;10306936;28;20047;-74
2023/03/02 08:29:30;;;;;;;3.67;3.28;;;;;;;19.91;42.83;97226.09;10303130;28;20051;-73
2023/03/02 08:34:51;;;;;;;3.85;3.40;;;;;;;19.95;43.02;97227.09;10292262;28;20050;-73
2023/03/02 08:40:10;;;;;;;3.80;3.50;;;;;;;19.98;43.05;97220.25;10291923;28;20039;-73
2023/03/02 08:45:30;;;;;;;3.85;3.45;;;;;;;20.01;42.89;97219.59;10306445;28;20046;-74
2023/03/02 08:51:11;;;;;;;3.78;3.47;;;;;;;20.05;42.98;97219.75;10306298;28;20058;-73
2023/03/02 08:56:33;;;;;;;4.68;3.45;;;;;;;20.08;43.07;97213.75;10291653;28;20039;-76
2023/03/02 09:01:52;;;;;;;3.97;3.58;;;;;;;20.12;43.05;97210.06;10291424;28;20043;-76
2023/03/02 09:07:16;;;;;;;15.05;11.02;;;;;;;20.15;43.15;97206.75;10312921;28;20046;-76
2023/03/02 09:12:35;;;;;;;13.68;10.77;;;;;;;20.20;43.30;97211.19;10314103;28;20050;-76
2023/03/02 09:17:55;;;;;;;18.85;10.27;;;;;;;20.23;43.08;97204.34;10299333;28;20038;-76
2023/03/02 09:23:14;;;;;;;12.20;9.73;;;;;;;20.27;43.02;97198.00;10298998;28;20065;-77
2023/03/02 09:28:35;;;;;;;12.35;9.00;;;;;;;20.31;43.28;97208.97;10312958;28;20047;-76
2023/03/02 09:33:55;;;;;;;12.15;8.95;;;;;;;20.34;43.27;97211.81;10259922;28;20110;-78
2023/03/02 09:39:16;;;;;;;11.60;7.97;;;;;;;20.37;42.86;97207.69;10272034;28;20055;-77
2023/03/02 09:45:13;;;;;;;10.13;7.63;;;;;;;20.39;42.73;97210.09;10271861;28;20054;-77
2023/03/02 09:50:35;;;;;;;10.02;7.35;;;;;;;20.43;42.73;97205.63;10272573;28;20051;-77
2023/03/02 09:56:01;;;;;;;10.07;7.53;;;;;;;20.44;42.65;97199.06;10272498;28;20047;-77
2023/03/02 10:01:29;;;;;;;10.00;7.18;;;;;;;20.47;42.79;97198.44;10271228;28;20559;-78
2023/03/02 10:06:57;;;;;;;8.20;6.83;;;;;;;20.48;43.05;97195.44;10257625;28;20051;-78
2023/03/02 10:12:46;;;;;;;9.20;7.00;;;;;;;20.50;43.00;97203.22;10270934;28;20046;-77
2023/03/02 10:18:58;;;;;;;9.98;6.90;;;;;;;20.50;42.83;97200.50;10250841;28;20455;-77
2023/03/02 10:24:40;;;;;;;10.05;6.63;;;;;;;20.51;43.00;97194.78;10212583;29;20082;-77
2023/03/02 10:30:05;;;;;;;8.52;6.63;;;;;;;20.50;42.95;97192.38;10273062;28;20051;-77
2023/03/02 10:35:26;;;;;;;8.02;6.38;;;;;;;20.51;43.18;97192.06;10296767;28;20053;-77
2023/03/02 10:40:58;;;;;;;9.27;6.60;;;;;;;20.52;43.06;97192.84;10283140;28;20055;-77
2023/03/02 10:46:18;;;;;;;8.57;6.57;;;;;;;20.53;43.15;97186.34;10297515;28;20045;-76
2023/03/02 10:51:38;;;;;;;8.25;6.32;;;;;;;20.54;43.10;97182.50;10296474;28;20510;-77
2023/03/02 10:57:00;;;;;;;7.45;6.35;;;;;;;20.54;42.95;97190.63;10310372;28;20380;-76
2023/03/02 11:02:22;;;;;;;7.63;6.80;;;;;;;20.53;42.51;97186.34;10309979;28;20054;-77
2023/03/02 11:07:51;;;;;;;10.60;7.88;;;;;;;20.54;42.26;97182.50;10295583;28;20097;-77
2023/03/02 11:13:22;;;;;;;9.77;7.60;;;;;;;20.52;41.97;97176.63;10281547;28;20047;-78
2023/03/02 11:18:51;;;;;;;8.68;7.43;;;;;;;20.53;41.46;97170.09;10295154;28;20046;-77
2023/03/02 11:24:18;;;;;;;14.13;12.25;;;;;;;20.48;36.14;97167.56;10294688;28;20043;-75
2023/03/02 11:30:00;;;;;;;23.13;18.05;;;;;;;20.28;30.94;97169.81;10292781;28;20051;-77
2023/03/02 11:35:29;;;;;;;23.23;19.70;;;;;;;20.04;30.35;97158.69;10294200;28;20093;-77
2023/03/02 11:40:55;;;;;;;24.60;20.52;;;;;;;19.65;27.56;97152.28;10308310;28;20054;-78
2023/03/02 11:46:29;;;;;;;26.63;21.25;;;;;;;19.48;27.73;97148.44;10280173;28;20043;-78
2023/03/02 11:52:01;;;;;;;24.65;20.13;;;;;;;19.43;27.74;97126.97;10503202;22;20141;-47
2023/03/02 11:57:32;;;;;;;26.55;20.88;;;;;;;19.41;26.97;97131.88;10492437;28;20068;-48
2023/03/02 12:03:00;;;;;;;25.50;20.40;;;;;;;19.37;26.81;97133.63;10492160;28;20048;-46
2023/03/02 12:08:20;;;;;;;23.20;19.47;;;;;;;19.41;26.89;97123.00;10505253;28;20067;-48
2023/03/02 12:13:40;;;;;;;23.70;19.33;;;;;;;19.36;27.89;97110.41;10492193;28;20683;-45
2023/03/02 12:19:16;;;;;;;19.13;15.13;;;;;;;19.66;30.53;97111.41;10491422;28;20056;-46
2023/03/02 12:24:38;;;;;;;12.77;10.40;;;;;;;19.84;30.92;97106.84;10490870;28;20053;-47
2023/03/02 12:30:22;;;;;;;17.85;13.18;;;;;;;19.95;31.75;97107.28;10491138;28;20114;-48
2023/03/02 12:35:42;;;;;;;16.20;12.88;;;;;;;20.01;32.37;97102.53;10490803;28;20110;-45
2023/03/02 12:41:24;;;;;;;16.45;12.15;;;;;;;20.05;32.78;97096.19;10490630;28;20407;-49
2023/03/02 12:46:45;;;;;;;14.80;11.80;;;;;;;20.09;33.25;97085.50;10490287;28;20049;-47
2023/03/02 12:52:37;;;;;;;13.43;10.85;;;;;;;20.10;33.50;97074.34;10489463;28;20520;-45
2023/03/02 12:58:02;;;;;;;15.38;11.20;;;;;;;20.14;33.93;97072.59;10464119;28;20056;-49
2023/03/02 13:03:22;;;;;;;12.77;10.20;;;;;;;20.15;34.21;97068.78;10461974;28;20056;-46
2023/03/02 13:08:43;;;;;;;12.20;10.35;;;;;;;20.15;34.46;97049.84;10462250;28;20049;-46
2023/03/02 13:14:17;;;;;;;13.30;10.65;;;;;;;20.19;34.61;97060.00;10447113;28;20390;-49
2023/03/02 13:19:36;;;;;;;12.68;10.38;;;;;;;20.20;34.94;97053.50;10461834;28;20049;-48
2023/03/02 13:24:59;;;;;;;11.75;9.73;;;;;;;20.21;35.19;97045.06;10461531;28;20052;-46
2023/03/02 13:30:25;;;;;;;11.75;9.88;;;;;;;20.24;35.44;97032.81;10474514;28;20106;-47
2023/03/02 13:35:46;;;;;;;11.40;9.48;;;;;;;20.24;35.69;97028.19;10461363;28;20075;-49
2023/03/02 13:41:05;;;;;;;18.08;13.90;;;;;;;20.25;36.23;97024.38;10460944;28;20052;-46
2023/03/02 13:46:29;;;;;;;14.02;11.07;;;;;;;20.28;36.43;97017.50;10460255;28;20053;-46
2023/03/02 13:51:57;;;;;;;11.50;9.77;;;;;;;20.29;35.43;97025.31;10446481;28;20064;-49
2023/03/02 13:57:22;;;;;;;12.17;10.20;;;;;;;20.30;35.90;97017.97;10433401;28;20053;-48
2023/03/02 14:02:42;;;;;;;14.25;9.75;;;;;;;20.33;36.18;97015.44;10436449;28;20060;-46
2023/03/02 14:08:01;;;;;;;13.80;9.73;;;;;;;20.34;36.51;96999.97;10434396;28;20049;-59
2023/03/02 14:13:49;;;;;;;15.43;9.40;;;;;;;20.37;37.00;96998.56;10437426;28;20452;-56
2023/03/02 14:19:12;;;;;;;10.10;8.48;;;;;;;20.38;37.27;96987.38;10419144;28;20059;-58
2023/03/02 14:24:32;;;;;;;22.70;16.30;;;;;;;20.39;37.58;96986.28;10436026;28;20050;-58
2023/03/02 14:29:51;;;;;;;24.80;18.48;;;;;;;20.42;38.10;96985.63;10433468;28;20103;-57
2023/03/02 14:35:12;;;;;;;18.00;14.93;;;;;;;20.44;38.24;96988.00;10437121;28;20056;-48
2023/03/02 14:40:32;;;;;;;19.63;14.70;;;;;;;20.43;38.32;96986.44;10417104;28;20053;-51
2023/03/02 14:45:52;;;;;;;17.90;13.85;;;;;;;20.45;38.38;96987.69;10425955;28;20053;-45
2023/03/02 14:51:23;;;;;;;15.90;13.57;;;;;;;20.46;38.75;96985.75;10457232;28;20057;-45
2023/03/02 14:56:43;;;;;;;17.30;13.35;;;;;;;20.45;38.58;96976.88;10457245;28;20053;-47
2023/03/02 15:02:02;;;;;;;19.10;13.23;;;;;;;20.46;38.75;96978.44;10456584;28;20049;-50
2023/03/02 15:07:23;;;;;;;16.45;12.63;;;;;;;20.46;38.74;96959.50;10456696;28;20056;-47
2023/03/02 15:12:44;;;;;;;14.45;11.57;;;;;;;20.46;38.71;96964.91;10468202;28;20619;-49
2023/03/02 15:18:03;;;;;;;16.15;12.02;;;;;;;20.47;38.79;96957.59;10453789;28;20049;-49
2023/03/02 15:23:23;;;;;;;15.07;12.10;;;;;;;20.45;38.83;96957.91;10454226;28;20171;-46
2023/03/02 15:28:44;;;;;;;15.25;11.75;;;;;;;20.46;38.82;96967.59;10456603;28;20041;-47
2023/03/02 15:34:04;;;;;;;13.27;11.05;;;;;;;20.45;38.86;96963.34;10442811;28;20498;-47
2023/03/02 15:39:23;;;;;;;13.27;10.88;;;;;;;20.44;38.88;96959.03;10433418;28;20524;-47
2023/03/02 15:44:42;;;;;;;12.18;10.60;;;;;;;20.44;39.13;96969.06;10440002;28;20393;-49
2023/03/02 15:50:02;;;;;;;15.48;11.27;;;;;;;20.44;39.20;96963.66;10455832;28;20061;-48
2023/03/02 15:55:22;;;;;;;15.00;11.10;;;;;;;20.43;39.46;96960.16;10469707;28;20448;-47
2023/03/02 16:00:42;;;;;;;12.88;10.15;;;;;;;20.42;39.54;96955.84;10447130;28;20046;-46
2023/03/02 16:06:02;;;;;;;11.70;9.93;;;;;;;20.43;39.65;96953.97;10446726;28;20040;-49
2023/03/02 16:11:22;;;;;;;12.75;9.77;;;;;;;20.41;39.68;96953.50;10448338;28;20100;-45
2023/03/02 16:16:42;;;;;;;12.98;10.07;;;;;;;20.39;39.83;96953.03;10435411;28;20049;-44
2023/03/02 16:22:02;;;;;;;11.10;9.43;;;;;;;20.38;39.85;96954.91;10455667;28;20049;-44
2023/03/02 16:27:22;;;;;;;10.32;9.13;;;;;;;20.36;39.88;96957.16;10455525;28;20057;-48
2023/03/02 16:32:41;;;;;;;11.82;9.63;;;;;;;20.37;40.05;96961.47;10449832;28;20477;-46
2023/03/02 16:38:02;;;;;;;13.45;8.98;;;;;;;20.35;40.07;96964.50;10454568;28;20044;-49
2023/03/02 16:43:23;;;;;;;10.50;8.48;;;;;;;20.35;40.25;96963.69;10441918;28;20053;-51
2023/03/02 16:48:43;;;;;;;12.02;8.93;;;;;;;20.35;40.24;96969.13;10451902;28;20057;-49
2023/03/02 16:54:03;;;;;;;10.20;8.43;;;;;;;20.33;40.08;96969.44;10455214;28;20041;-52
2023/03/02 16:59:23;;;;;;;11.05;8.60;;;;;;;20.31;40.26;96963.56;10454635;28;20041;-48
2023/03/02 17:04:42;;;;;;;11.80;8.52;;;;;;;20.30;40.37;96975.47;10441343;28;20085;-50
2023/03/02 17:10:02;;;;;;;10.18;8.40;;;;;;;20.31;40.30;96979.00;10439160;28;20041;-44
2023/03/02 17:15:22;;;;;;;12.07;8.88;;;;;;;20.29;40.45;96976.63;10420451;28;20049;-45
2023/03/02 17:20:42;;;;;;;10.07;8.25;;;;;;;20.29;40.09;96978.53;10433580;28;20148;-47
2023/03/02 17:26:02;;;;;;;10.82;8.65;;;;;;;20.27;40.08;96978.84;10420809;28;20053;-46
2023/03/02 17:31:21;;;;;;;9.18;8.13;;;;;;;20.26;40.21;96977.25;10419497;28;20057;-46
2023/03/02 17:36:41;;;;;;;9.80;7.70;;;;;;;20.25;40.22;96991.13;10426493;28;20045;-49
2023/03/02 17:42:01;;;;;;;9.20;8.20;;;;;;;20.24;40.22;96986.81;10448640;28;20412;-49
2023/03/02 17:47:21;;;;;;;9.05;8.05;;;;;;;20.23;40.29;96982.50;10419276;28;20168;-46
2023/03/02 17:52:41;;;;;;;9.38;7.70;;;;;;;20.20;40.19;96983.97;10419096;28;20057;-45
2023/03/02 17:58:00;;;;;;;8.00;7.20;;;;;;;20.20;40.35;96985.88;10418992;28;20124;-48
2023/03/02 18:03:20;;;;;;;8.73;7.53;;;;;;;20.17;40.25;96984.63;10431910;28;20049;-45
2023/03/02 18:08:39;;;;;;;9.27;7.38;;;;;;;20.17;40.42;96981.91;10417819;28;20124;-44
2023/03/02 18:13:59;;;;;;;8.85;7.20;;;;;;;20.14;40.41;96975.22;10418129;28;20058;-47
2023/03/02 18:19:18;;;;;;;9.32;6.97;;;;;;;20.14;40.38;96979.84;10431485;28;20061;-47
2023/03/02 18:24:38;;;;;;;7.88;7.07;;;;;;;20.11;40.35;96975.06;10416953;28;20523;-45
2023/03/02 18:29:58;;;;;;;8.70;6.90;;;;;;;20.10;40.49;96974.28;10417230;28;20053;-45
2023/03/02 18:35:18;;;;;;;9.88;7.20;;;;;;;20.08;40.55;96973.81;10417824;28;20053;-45
2023/03/02 18:40:38;;;;;;;8.98;6.88;;;;;;;20.07;40.57;96974.94;10430730;28;20045;-45
2023/03/02 18:45:57;;;;;;;7.72;6.70;;;;;;;20.06;40.77;96983.38;10417120;28;20057;-45
2023/03/02 18:51:18;;;;;;;9.90;6.50;;;;;;;20.05;40.76;96979.06;10416210;28;20057;-47
2023/03/02 18:56:39;;;;;;;7.70;6.45;;;;;;;20.04;40.72;96981.00;10416501;28;20053;-49
2023/03/02 19:01:59;;;;;;;10.05;6.70;;;;;;;20.03;41.04;96984.00;10416462;28;20111;-49
2023/03/02 19:07:18;;;;;;;7.38;6.28;;;;;;;20.02;41.45;96983.22;10416253;28;20061;-47
2023/03/02 19:12:37;;;;;;;7.38;6.38;;;;;;;20.03;41.48;96992.13;10415959;28;20061;-46
2023/03/02 19:17:57;;;;;;;9.60;6.38;;;;;;;20.03;41.63;96992.13;10416053;28;20050;-48
2023/03/02 19:23:17;;;;;;;8.68;5.97;;;;;;;20.02;41.65;96994.03;10416078;28;20057;-47
2023/03/02 19:28:38;;;;;;;9.32;6.53;;;;;;;20.01;41.82;97000.56;10428994;28;20533;-48
2023/03/02 19:33:58;;;;;;;6.78;5.88;;;;;;;20.03;41.66;97002.94;10428587;28;20421;-50
2023/03/02 19:39:17;;;;;;;8.07;5.88;;;;;;;20.03;41.81;97002.94;10428355;28;20046;-49
2023/03/02 19:44:37;;;;;;;8.82;6.43;;;;;;;20.03;41.63;96998.34;10428331;28;20094;-50
2023/03/02 19:49:56;;;;;;;7.78;5.85;;;;;;;20.04;41.71;97001.84;10436570;28;20045;-47
2023/03/02 19:55:16;;;;;;;8.10;6.05;;;;;;;20.04;41.77;97007.25;10435156;28;20072;-48
2023/03/02 20:00:37;;;;;;;7.57;6.35;;;;;;;20.05;41.82;97004.22;10435050;28;20045;-48
2023/03/02 20:05:57;;;;;;;7.32;5.82;;;;;;;20.07;41.77;97017.41;10434837;28;20049;-47
2023/03/02 20:11:17;;;;;;;7.45;5.68;;;;;;;20.08;41.88;97013.59;10436555;28;20087;-48
2023/03/02 20:16:37;;;;;;;7.28;5.60;;;;;;;20.10;41.80;97014.06;10422603;28;20059;-48
2023/03/02 20:21:57;;;;;;;6.72;5.90;;;;;;;20.12;41.85;97014.53;10421811;28;20549;-47
2023/03/02 20:27:16;;;;;;;6.93;6.00;;;;;;;20.14;42.10;97018.50;10422660;28;20057;-46
2023/03/02 20:32:36;;;;;;;7.28;5.28;;;;;;;20.15;42.06;97011.19;10422707;28;20049;-49
2023/03/02 20:37:57;;;;;;;6.35;5.35;;;;;;;20.18;41.99;97018.66;10422153;28;20456;-46
2023/03/02 20:43:17;;;;;;;8.80;6.22;;;;;;;20.19;42.04;97020.25;10431642;28;20525;-49
2023/03/02 20:48:37;;;;;;;6.57;5.40;;;;;;;20.22;42.03;97024.22;10437518;28;20132;-47
2023/03/02 20:53:57;;;;;;;7.45;5.50;;;;;;;20.24;42.21;97020.06;10421116;28;20536;-47
2023/03/02 20:59:17;;;;;;;7.90;5.50;;;;;;;20.26;42.17;97025.16;10421343;28;20053;-47
2023/03/02 21:04:36;;;;;;;8.23;5.32;;;;;;;20.29;42.15;97016.41;10421181;28;20053;-47
2023/03/02 21:09:56;;;;;;;8.90;5.88;;;;;;;20.32;41.92;97021.16;10405953;28;20414;-48
2023/03/02 21:15:18;;;;;;;9.38;5.90;;;;;;;20.34;41.76;97022.41;10420996;28;20053;-46
2023/03/02 21:20:38;;;;;;;7.55;5.88;;;;;;;20.36;41.66;97019.38;10419851;28;20061;-48
2023/03/02 21:25:58;;;;;;;9.85;5.50;;;;;;;20.38;41.90;97017.16;10433989;28;20048;-48
2023/03/02 21:31:18;;;;;;;9.77;6.03;;;;;;;20.39;41.73;97015.25;10420572;28;20049;-49
2023/03/02 21:36:38;;;;;;;10.40;6.63;;;;;;;20.40;42.01;97001.38;10461219;28;20048;-46
2023/03/02 21:41:58;;;;;;;11.57;6.30;;;;;;;20.41;42.08;97015.72;10461192;28;20051;-47
2023/03/02 21:47:17;;;;;;;15.45;6.90;;;;;;;20.40;42.13;97006.78;10474576;28;20037;-47
2023/03/02 21:52:38;;;;;;;15.90;7.07;;;;;;;20.41;42.15;97004.91;10474075;28;20405;-49
2023/03/02 21:57:58;;;;;;;14.77;7.07;;;;;;;20.40;42.31;97006.78;10460380;28;20196;-49
2023/03/02 22:03:18;;;;;;;12.77;6.43;;;;;;;20.40;42.37;97001.38;10460466;28;20072;-47
2023/03/02 22:08:38;;;;;;;13.65;6.45;;;;;;;20.40;42.31;97012.22;10459871;28;20045;-48
2023/03/02 22:14:00;;;;;;;12.93;7.03;;;;;;;20.40;42.36;97006.78;10459541;28;20127;-48
2023/03/02 22:19:24;;;;;;;10.50;6.32;;;;;;;20.41;42.33;97002.19;10444736;28;20056;-47
2023/03/02 22:24:48;;;;;;;10.77;6.35;;;;;;;20.39;42.55;97007.94;10459351;28;20386;-47
2023/03/02 22:30:33;;;;;;;11.40;6.57;;;;;;;20.39;42.97;97017.97;10458540;28;20509;-48
2023/03/02 22:36:00;;;;;;;10.88;6.40;;;;;;;20.39;42.93;97023.38;10457980;28;20048;-49
2023/03/02 22:41:20;;;;;;;8.27;5.78;;;;;;;20.37;43.13;97010.16;10443534;28;20048;-49
2023/03/02 22:46:39;;;;;;;10.05;6.10;;;;;;;20.38;42.93;97016.38;10457814;28;20069;-46
2023/03/02 22:52:00;;;;;;;10.27;5.90;;;;;;;20.35;43.07;97007.78;10458878;28;20057;-47
2023/03/02 22:57:29;;;;;;;11.00;5.80;;;;;;;20.37;42.97;97012.88;10442702;28;20114;-49
2023/03/02 23:02:49;;;;;;;9.90;5.85;;;;;;;20.35;43.20;97015.91;10457142;28;20110;-49
2023/03/02 23:08:22;;;;;;;9.48;5.75;;;;;;;20.34;42.95;97013.50;10457623;28;20057;-47
2023/03/02 23:13:42;;;;;;;8.48;5.10;;;;;;;20.33;42.92;97014.63;10457649;28;20440;-49
2023/03/02 23:19:03;;;;;;;8.82;5.90;;;;;;;20.32;42.75;97011.13;10456642;28;20830;-48
2023/03/02 23:24:23;;;;;;;8.65;5.30;;;;;;;20.31;42.52;97006.84;10470238;28;20108;-49
2023/03/02 23:29:42;;;;;;;9.20;5.32;;;;;;;20.29;42.66;97000.19;10441868;28;20060;-49
2023/03/02 23:35:02;;;;;;;8.18;5.10;;;;;;;20.29;42.54;96992.06;10456710;28;20048;-48
2023/03/02 23:40:21;;;;;;;9.13;4.93;;;;;;;20.27;42.55;96988.88;10470085;28;20049;-47
2023/03/02 23:45:41;;;;;;;7.85;5.05;;;;;;;20.25;42.51;96983.78;10456668;28;20057;-48
2023/03/02 23:51:00;;;;;;;9.38;5.10;;;;;;;20.25;42.51;96989.19;10455858;28;20114;-46
2023/03/02 23:56:20;;;;;;;7.97;5.22;;;;;;;20.24;42.51;96978.69;10455831;28;20098;-47
